sensor_id;sensor_type;location;lat;lon;timestamp;temperature;humidity
12436;DHT22;6282;51.440;6.938;2023-05-07T00:00:24;15.30;99.90
12436;DHT22;6282;51.440;6.938;2023-05-07T00:02:51;15.30;99.90
12436;DHT22;6282;51.440;6.938;2023-05-07T00:05:19;15.40;99.90
12436;DHT22;6282;51.440;6.938;2023-05-07T00:07:48;15.40;99.90
12436;DHT22;6282;51.440;6.938;2023-05-07T00:10:14;15.00;99.90
12436;DHT22;6282;51.440;6.938;2023-05-07T00:12:41;15.00;99.90
12436;DHT22;6282;51.440;6.938;2023-05-07T00:15:08;15.10;99.90
12436;DHT22;6282;51.440;6.938;2023-05-07T00:17:36;15.10;99.90
12436;DHT22;6282;51.440;6.938;2023-05-07T00:20:04;15.10;99.90
12436;DHT22;6282;51.440;6.938;2023-05-07T00:22:31;15.10;99.90
12436;DHT22;6282;51.440;6.938;2023-05-07T00:24:59;15.10;99.90
12436;DHT22;6282;51.440;6.938;2023-05-07T00:27:26;15.20;99.90
12436;DHT22;6282;51.440;6.938;2023-05-07T00:29:53;15.30;99.90
12436;DHT22;6282;51.440;6.938;2023-05-07T00:32:19;15.30;99.90
12436;DHT22;6282;51.440;6.938;2023-05-07T00:34:46;15.20;99.90
12436;DHT22;6282;51.440;6.938;2023-05-07T00:37:13;15.00;99.90
12436;DHT22;6282;51.440;6.938;2023-05-07T00:39:40;14.90;99.90
12436;DHT22;6282;51.440;6.938;2023-05-07T00:42:08;14.90;99.90
12436;DHT22;6282;51.440;6.938;2023-05-07T00:44:35;14.90;99.90
12436;DHT22;6282;51.440;6.938;2023-05-07T00:47:04;14.90;99.90
12436;DHT22;6282;51.440;6.938;2023-05-07T00:49:37;14.80;99.90
12436;DHT22;6282;51.440;6.938;2023-05-07T00:52:06;14.50;99.90
12436;DHT22;6282;51.440;6.938;2023-05-07T00:54:33;14.50;99.90
12436;DHT22;6282;51.440;6.938;2023-05-07T00:57:02;14.40;99.90
12436;DHT22;6282;51.440;6.938;2023-05-07T00:59:31;14.40;99.90
12436;DHT22;6282;51.440;6.938;2023-05-07T01:01:58;14.30;99.90
12436;DHT22;6282;51.440;6.938;2023-05-07T01:04:26;14.30;99.90
12436;DHT22;6282;51.440;6.938;2023-05-07T01:06:55;14.50;99.90
12436;DHT22;6282;51.440;6.938;2023-05-07T01:09:23;14.40;99.90
12436;DHT22;6282;51.440;6.938;2023-05-07T01:11:50;14.30;99.90
12436;DHT22;6282;51.440;6.938;2023-05-07T01:14:18;14.30;99.90
12436;DHT22;6282;51.440;6.938;2023-05-07T01:16:47;14.30;99.90
12436;DHT22;6282;51.440;6.938;2023-05-07T01:19:18;14.30;99.90
12436;DHT22;6282;51.440;6.938;2023-05-07T01:21:47;14.40;99.90
12436;DHT22;6282;51.440;6.938;2023-05-07T01:24:16;14.40;99.90
12436;DHT22;6282;51.440;6.938;2023-05-07T01:26:43;14.50;99.90
12436;DHT22;6282;51.440;6.938;2023-05-07T01:29:10;14.50;99.90
12436;DHT22;6282;51.440;6.938;2023-05-07T01:31:37;14.50;99.90
12436;DHT22;6282;51.440;6.938;2023-05-07T01:34:05;14.50;99.90
12436;DHT22;6282;51.440;6.938;2023-05-07T01:36:34;14.40;99.90
12436;DHT22;6282;51.440;6.938;2023-05-07T01:39:03;14.40;99.90
12436;DHT22;6282;51.440;6.938;2023-05-07T01:41:32;14.30;99.90
12436;DHT22;6282;51.440;6.938;2023-05-07T01:43:59;14.40;99.90
12436;DHT22;6282;51.440;6.938;2023-05-07T01:46:27;14.30;99.90
12436;DHT22;6282;51.440;6.938;2023-05-07T01:48:54;14.30;99.90
12436;DHT22;6282;51.440;6.938;2023-05-07T01:51:21;14.30;99.90
12436;DHT22;6282;51.440;6.938;2023-05-07T01:53:48;14.20;99.90
12436;DHT22;6282;51.440;6.938;2023-05-07T01:56:16;14.20;99.90
12436;DHT22;6282;51.440;6.938;2023-05-07T01:58:46;14.30;99.90
12436;DHT22;6282;51.440;6.938;2023-05-07T02:01:13;14.30;99.90
12436;DHT22;6282;51.440;6.938;2023-05-07T02:03:40;14.20;99.90
12436;DHT22;6282;51.440;6.938;2023-05-07T02:06:07;14.20;99.90
12436;DHT22;6282;51.440;6.938;2023-05-07T02:08:33;14.40;99.90
12436;DHT22;6282;51.440;6.938;2023-05-07T02:11:00;14.40;99.90
12436;DHT22;6282;51.440;6.938;2023-05-07T02:13:29;14.40;99.90
12436;DHT22;6282;51.440;6.938;2023-05-07T02:15:58;14.40;99.90
12436;DHT22;6282;51.440;6.938;2023-05-07T02:18:25;14.30;99.90
12436;DHT22;6282;51.440;6.938;2023-05-07T02:20:52;14.20;99.90
12436;DHT22;6282;51.440;6.938;2023-05-07T02:23:19;14.20;99.90
12436;DHT22;6282;51.440;6.938;2023-05-07T02:25:45;14.20;99.90
12436;DHT22;6282;51.440;6.938;2023-05-07T02:28:12;14.20;99.90
12436;DHT22;6282;51.440;6.938;2023-05-07T02:30:39;14.30;99.90
12436;DHT22;6282;51.440;6.938;2023-05-07T02:33:08;14.20;99.90
12436;DHT22;6282;51.440;6.938;2023-05-07T02:35:35;14.10;99.90
12436;DHT22;6282;51.440;6.938;2023-05-07T02:38:02;14.20;99.90
12436;DHT22;6282;51.440;6.938;2023-05-07T02:40:28;14.10;99.90
12436;DHT22;6282;51.440;6.938;2023-05-07T02:42:59;13.90;99.90
12436;DHT22;6282;51.440;6.938;2023-05-07T02:45:25;14.00;99.90
12436;DHT22;6282;51.440;6.938;2023-05-07T02:47:52;14.00;99.90
12436;DHT22;6282;51.440;6.938;2023-05-07T02:50:20;13.90;99.90
12436;DHT22;6282;51.440;6.938;2023-05-07T02:52:47;14.00;99.90
12436;DHT22;6282;51.440;6.938;2023-05-07T02:55:14;14.00;99.90
12436;DHT22;6282;51.440;6.938;2023-05-07T02:57:41;13.90;99.90
12436;DHT22;6282;51.440;6.938;2023-05-07T03:00:13;13.80;99.90
12436;DHT22;6282;51.440;6.938;2023-05-07T03:02:40;13.80;99.90
12436;DHT22;6282;51.440;6.938;2023-05-07T03:05:07;13.80;99.90
12436;DHT22;6282;51.440;6.938;2023-05-07T03:07:36;13.90;99.90
12436;DHT22;6282;51.440;6.938;2023-05-07T03:10:03;13.80;99.90
12436;DHT22;6282;51.440;6.938;2023-05-07T03:12:30;13.90;99.90
12436;DHT22;6282;51.440;6.938;2023-05-07T03:14:57;13.90;99.90
12436;DHT22;6282;51.440;6.938;2023-05-07T03:17:24;13.90;99.90
12436;DHT22;6282;51.440;6.938;2023-05-07T03:19:51;13.90;99.90
12436;DHT22;6282;51.440;6.938;2023-05-07T03:22:18;13.90;99.90
12436;DHT22;6282;51.440;6.938;2023-05-07T03:24:46;13.90;99.90
12436;DHT22;6282;51.440;6.938;2023-05-07T03:27:13;13.90;99.90
12436;DHT22;6282;51.440;6.938;2023-05-07T03:29:40;13.90;99.90
12436;DHT22;6282;51.440;6.938;2023-05-07T03:32:06;13.90;99.90
12436;DHT22;6282;51.440;6.938;2023-05-07T03:34:33;13.90;99.90
12436;DHT22;6282;51.440;6.938;2023-05-07T03:37:00;13.90;99.90
12436;DHT22;6282;51.440;6.938;2023-05-07T03:39:27;13.90;99.90
12436;DHT22;6282;51.440;6.938;2023-05-07T03:41:55;14.00;99.90
12436;DHT22;6282;51.440;6.938;2023-05-07T03:44:22;13.90;99.90
12436;DHT22;6282;51.440;6.938;2023-05-07T03:46:49;13.90;99.90
12436;DHT22;6282;51.440;6.938;2023-05-07T03:49:15;13.90;99.90
12436;DHT22;6282;51.440;6.938;2023-05-07T03:51:42;13.80;99.90
12436;DHT22;6282;51.440;6.938;2023-05-07T03:54:09;13.90;99.90
12436;DHT22;6282;51.440;6.938;2023-05-07T03:56:36;13.90;99.90
12436;DHT22;6282;51.440;6.938;2023-05-07T03:59:04;14.00;99.90
12436;DHT22;6282;51.440;6.938;2023-05-07T04:01:31;14.00;99.90
12436;DHT22;6282;51.440;6.938;2023-05-07T04:03:58;14.00;99.90
12436;DHT22;6282;51.440;6.938;2023-05-07T04:06:25;14.00;99.90
12436;DHT22;6282;51.440;6.938;2023-05-07T04:08:53;14.10;99.90
12436;DHT22;6282;51.440;6.938;2023-05-07T04:11:19;14.00;99.90
12436;DHT22;6282;51.440;6.938;2023-05-07T04:13:46;14.00;99.90
12436;DHT22;6282;51.440;6.938;2023-05-07T04:16:15;14.00;99.90
12436;DHT22;6282;51.440;6.938;2023-05-07T04:18:42;14.10;99.90
12436;DHT22;6282;51.440;6.938;2023-05-07T04:21:14;14.10;99.90
12436;DHT22;6282;51.440;6.938;2023-05-07T04:23:41;14.10;99.90
12436;DHT22;6282;51.440;6.938;2023-05-07T04:26:08;14.10;99.90
12436;DHT22;6282;51.440;6.938;2023-05-07T04:28:35;14.10;99.90
12436;DHT22;6282;51.440;6.938;2023-05-07T04:31:02;14.10;99.90
12436;DHT22;6282;51.440;6.938;2023-05-07T04:33:31;14.20;99.90
12436;DHT22;6282;51.440;6.938;2023-05-07T04:35:58;14.30;99.90
12436;DHT22;6282;51.440;6.938;2023-05-07T04:38:28;14.30;99.90
12436;DHT22;6282;51.440;6.938;2023-05-07T04:40:55;14.30;99.90
12436;DHT22;6282;51.440;6.938;2023-05-07T04:43:22;14.40;99.90
12436;DHT22;6282;51.440;6.938;2023-05-07T04:45:50;14.30;99.90
12436;DHT22;6282;51.440;6.938;2023-05-07T04:48:17;14.30;99.90
12436;DHT22;6282;51.440;6.938;2023-05-07T04:50:47;14.40;99.90
12436;DHT22;6282;51.440;6.938;2023-05-07T04:53:14;14.40;99.90
12436;DHT22;6282;51.440;6.938;2023-05-07T04:55:41;14.50;99.90
12436;DHT22;6282;51.440;6.938;2023-05-07T04:58:08;14.50;99.90
12436;DHT22;6282;51.440;6.938;2023-05-07T05:00:36;14.50;99.90
12436;DHT22;6282;51.440;6.938;2023-05-07T05:03:03;14.40;99.90
12436;DHT22;6282;51.440;6.938;2023-05-07T05:05:30;14.40;99.90
12436;DHT22;6282;51.440;6.938;2023-05-07T05:07:58;14.40;99.90
12436;DHT22;6282;51.440;6.938;2023-05-07T05:10:25;14.50;99.90
12436;DHT22;6282;51.440;6.938;2023-05-07T05:12:52;14.50;99.90
12436;DHT22;6282;51.440;6.938;2023-05-07T05:15:19;14.60;99.90
12436;DHT22;6282;51.440;6.938;2023-05-07T05:17:46;14.70;99.90
12436;DHT22;6282;51.440;6.938;2023-05-07T05:20:12;14.70;99.90
12436;DHT22;6282;51.440;6.938;2023-05-07T05:22:41;14.60;99.90
12436;DHT22;6282;51.440;6.938;2023-05-07T05:25:09;14.70;99.90
12436;DHT22;6282;51.440;6.938;2023-05-07T05:27:36;14.70;99.90
12436;DHT22;6282;51.440;6.938;2023-05-07T05:30:04;14.70;99.90
12436;DHT22;6282;51.440;6.938;2023-05-07T05:32:31;14.80;99.90
12436;DHT22;6282;51.440;6.938;2023-05-07T05:34:58;14.80;99.90
12436;DHT22;6282;51.440;6.938;2023-05-07T05:37:25;15.00;99.90
12436;DHT22;6282;51.440;6.938;2023-05-07T05:39:52;15.10;99.90
12436;DHT22;6282;51.440;6.938;2023-05-07T05:42:21;14.90;99.90
12436;DHT22;6282;51.440;6.938;2023-05-07T05:44:48;15.10;99.90
12436;DHT22;6282;51.440;6.938;2023-05-07T05:47:15;15.20;99.90
12436;DHT22;6282;51.440;6.938;2023-05-07T05:49:42;15.00;99.90
12436;DHT22;6282;51.440;6.938;2023-05-07T05:52:11;15.00;99.90
12436;DHT22;6282;51.440;6.938;2023-05-07T05:54:38;15.20;99.90
12436;DHT22;6282;51.440;6.938;2023-05-07T05:57:05;15.20;99.90
12436;DHT22;6282;51.440;6.938;2023-05-07T05:59:33;15.40;99.90
12436;DHT22;6282;51.440;6.938;2023-05-07T06:02:00;15.40;99.90
12436;DHT22;6282;51.440;6.938;2023-05-07T06:04:27;15.40;99.90
12436;DHT22;6282;51.440;6.938;2023-05-07T06:06:54;15.50;99.90
12436;DHT22;6282;51.440;6.938;2023-05-07T06:09:22;15.40;99.90
12436;DHT22;6282;51.440;6.938;2023-05-07T06:11:49;15.50;99.90
12436;DHT22;6282;51.440;6.938;2023-05-07T06:14:15;15.70;99.90
12436;DHT22;6282;51.440;6.938;2023-05-07T06:16:44;15.60;99.90
12436;DHT22;6282;51.440;6.938;2023-05-07T06:19:11;15.70;99.90
12436;DHT22;6282;51.440;6.938;2023-05-07T06:21:39;15.80;99.90
12436;DHT22;6282;51.440;6.938;2023-05-07T06:24:06;15.90;99.90
12436;DHT22;6282;51.440;6.938;2023-05-07T06:26:33;16.20;99.90
12436;DHT22;6282;51.440;6.938;2023-05-07T06:29:00;16.30;99.90
12436;DHT22;6282;51.440;6.938;2023-05-07T06:31:30;16.40;99.90
12436;DHT22;6282;51.440;6.938;2023-05-07T06:33:58;16.50;99.90
12436;DHT22;6282;51.440;6.938;2023-05-07T06:36:27;16.50;99.90
12436;DHT22;6282;51.440;6.938;2023-05-07T06:38:54;16.50;99.90
12436;DHT22;6282;51.440;6.938;2023-05-07T06:41:21;16.50;99.90
12436;DHT22;6282;51.440;6.938;2023-05-07T06:43:48;16.40;99.90
12436;DHT22;6282;51.440;6.938;2023-05-07T06:46:15;16.60;99.90
12436;DHT22;6282;51.440;6.938;2023-05-07T06:48:42;16.50;99.90
12436;DHT22;6282;51.440;6.938;2023-05-07T06:51:10;16.60;99.90
12436;DHT22;6282;51.440;6.938;2023-05-07T06:53:36;16.70;99.90
12436;DHT22;6282;51.440;6.938;2023-05-07T06:56:04;16.70;99.90
12436;DHT22;6282;51.440;6.938;2023-05-07T06:58:31;16.60;99.90
12436;DHT22;6282;51.440;6.938;2023-05-07T07:00:58;16.60;99.90
12436;DHT22;6282;51.440;6.938;2023-05-07T07:03:24;16.80;99.90
12436;DHT22;6282;51.440;6.938;2023-05-07T07:05:52;16.90;99.90
12436;DHT22;6282;51.440;6.938;2023-05-07T07:08:20;16.90;99.90
12436;DHT22;6282;51.440;6.938;2023-05-07T07:10:47;16.80;99.90
12436;DHT22;6282;51.440;6.938;2023-05-07T07:13:14;17.00;99.90
12436;DHT22;6282;51.440;6.938;2023-05-07T07:15:41;17.20;99.90
12436;DHT22;6282;51.440;6.938;2023-05-07T07:18:09;17.10;99.90
12436;DHT22;6282;51.440;6.938;2023-05-07T07:20:35;17.20;99.90
12436;DHT22;6282;51.440;6.938;2023-05-07T07:23:02;17.30;99.90
12436;DHT22;6282;51.440;6.938;2023-05-07T07:25:30;17.20;99.90
12436;DHT22;6282;51.440;6.938;2023-05-07T07:27:57;17.20;99.90
12436;DHT22;6282;51.440;6.938;2023-05-07T07:30:24;17.30;99.90
12436;DHT22;6282;51.440;6.938;2023-05-07T07:32:51;17.10;99.90
12436;DHT22;6282;51.440;6.938;2023-05-07T07:35:18;17.20;99.90
12436;DHT22;6282;51.440;6.938;2023-05-07T07:37:45;17.40;99.90
12436;DHT22;6282;51.440;6.938;2023-05-07T07:40:12;17.70;99.90
12436;DHT22;6282;51.440;6.938;2023-05-07T07:42:41;17.80;99.90
12436;DHT22;6282;51.440;6.938;2023-05-07T07:45:08;17.80;99.90
12436;DHT22;6282;51.440;6.938;2023-05-07T07:47:35;17.90;99.90
12436;DHT22;6282;51.440;6.938;2023-05-07T07:50:02;17.90;99.90
12436;DHT22;6282;51.440;6.938;2023-05-07T07:52:29;18.00;99.90
12436;DHT22;6282;51.440;6.938;2023-05-07T07:54:56;17.80;99.90
12436;DHT22;6282;51.440;6.938;2023-05-07T07:57:23;17.90;99.90
12436;DHT22;6282;51.440;6.938;2023-05-07T07:59:51;18.20;99.90
12436;DHT22;6282;51.440;6.938;2023-05-07T08:02:18;18.30;99.90
12436;DHT22;6282;51.440;6.938;2023-05-07T08:04:46;18.40;99.90
12436;DHT22;6282;51.440;6.938;2023-05-07T08:07:13;18.70;99.90
12436;DHT22;6282;51.440;6.938;2023-05-07T08:09:40;19.00;99.90
12436;DHT22;6282;51.440;6.938;2023-05-07T08:12:07;19.40;99.90
12436;DHT22;6282;51.440;6.938;2023-05-07T08:14:34;19.00;99.90
12436;DHT22;6282;51.440;6.938;2023-05-07T08:17:03;19.20;99.90
12436;DHT22;6282;51.440;6.938;2023-05-07T08:19:32;19.40;99.90
12436;DHT22;6282;51.440;6.938;2023-05-07T08:22:00;19.40;99.90
12436;DHT22;6282;51.440;6.938;2023-05-07T08:24:26;19.70;99.90
12436;DHT22;6282;51.440;6.938;2023-05-07T08:26:53;19.00;99.90
12436;DHT22;6282;51.440;6.938;2023-05-07T08:29:20;19.60;99.90
12436;DHT22;6282;51.440;6.938;2023-05-07T08:31:47;19.40;99.90
12436;DHT22;6282;51.440;6.938;2023-05-07T08:34:15;19.40;99.90
12436;DHT22;6282;51.440;6.938;2023-05-07T08:36:42;19.80;99.90
12436;DHT22;6282;51.440;6.938;2023-05-07T08:39:09;20.20;99.90
12436;DHT22;6282;51.440;6.938;2023-05-07T08:41:35;20.50;99.90
12436;DHT22;6282;51.440;6.938;2023-05-07T08:44:03;20.40;99.90
12436;DHT22;6282;51.440;6.938;2023-05-07T08:46:32;20.30;99.90
12436;DHT22;6282;51.440;6.938;2023-05-07T08:48:59;20.00;99.90
12436;DHT22;6282;51.440;6.938;2023-05-07T08:51:28;20.40;99.90
12436;DHT22;6282;51.440;6.938;2023-05-07T08:53:56;20.80;99.90
12436;DHT22;6282;51.440;6.938;2023-05-07T08:56:22;21.20;99.90
12436;DHT22;6282;51.440;6.938;2023-05-07T09:28:45;22.90;99.90
12436;DHT22;6282;51.440;6.938;2023-05-07T09:31:12;23.60;99.90
12436;DHT22;6282;51.440;6.938;2023-05-07T09:33:40;22.60;99.90
12436;DHT22;6282;51.440;6.938;2023-05-07T09:36:09;22.40;99.90
12436;DHT22;6282;51.440;6.938;2023-05-07T09:38:37;22.70;99.90
12436;DHT22;6282;51.440;6.938;2023-05-07T09:41:05;23.00;99.90
12436;DHT22;6282;51.440;6.938;2023-05-07T09:43:33;23.00;99.90
12436;DHT22;6282;51.440;6.938;2023-05-07T09:46:05;22.30;99.90
12436;DHT22;6282;51.440;6.938;2023-05-07T09:48:37;21.80;99.90
12436;DHT22;6282;51.440;6.938;2023-05-07T09:51:10;22.00;99.90
12436;DHT22;6282;51.440;6.938;2023-05-07T09:53:39;22.40;99.90
12436;DHT22;6282;51.440;6.938;2023-05-07T09:56:06;22.40;99.90
12436;DHT22;6282;51.440;6.938;2023-05-07T09:58:37;22.40;99.90
12436;DHT22;6282;51.440;6.938;2023-05-07T10:01:06;22.40;99.90
12436;DHT22;6282;51.440;6.938;2023-05-07T10:03:33;22.40;99.90
12436;DHT22;6282;51.440;6.938;2023-05-07T10:06:02;21.80;99.90
12436;DHT22;6282;51.440;6.938;2023-05-07T10:08:31;22.10;99.90
12436;DHT22;6282;51.440;6.938;2023-05-07T10:10:58;22.00;99.90
12436;DHT22;6282;51.440;6.938;2023-05-07T10:25:40;22.20;99.90
12436;DHT22;6282;51.440;6.938;2023-05-07T10:28:09;22.40;99.90
12436;DHT22;6282;51.440;6.938;2023-05-07T10:30:44;21.90;99.90
12436;DHT22;6282;51.440;6.938;2023-05-07T10:33:15;22.00;99.90
12436;DHT22;6282;51.440;6.938;2023-05-07T10:35:45;22.10;99.90
12436;DHT22;6282;51.440;6.938;2023-05-07T10:55:44;21.80;99.90
12436;DHT22;6282;51.440;6.938;2023-05-07T10:58:24;22.10;99.90
12436;DHT22;6282;51.440;6.938;2023-05-07T11:00:56;21.90;99.90
12436;DHT22;6282;51.440;6.938;2023-05-07T11:03:24;22.00;99.90
12436;DHT22;6282;51.440;6.938;2023-05-07T11:06:11;21.90;99.90
12436;DHT22;6282;51.440;6.938;2023-05-07T11:08:55;21.40;99.90
12436;DHT22;6282;51.440;6.938;2023-05-07T11:11:44;21.60;99.90
12436;DHT22;6282;51.440;6.938;2023-05-07T11:14:12;21.40;99.90
12436;DHT22;6282;51.440;6.938;2023-05-07T11:16:41;21.90;99.90
12436;DHT22;6282;51.440;6.938;2023-05-07T11:19:08;21.90;99.90
12436;DHT22;6282;51.440;6.938;2023-05-07T11:21:36;21.30;99.90
12436;DHT22;6282;51.440;6.938;2023-05-07T11:24:06;21.50;99.90
12436;DHT22;6282;51.440;6.938;2023-05-07T11:26:44;21.40;99.90
12436;DHT22;6282;51.440;6.938;2023-05-07T11:29:12;21.80;99.90
12436;DHT22;6282;51.440;6.938;2023-05-07T11:31:40;21.70;99.90
12436;DHT22;6282;51.440;6.938;2023-05-07T11:34:08;22.20;99.90
12436;DHT22;6282;51.440;6.938;2023-05-07T11:49:00;21.90;99.90
12436;DHT22;6282;51.440;6.938;2023-05-07T11:51:27;21.90;99.90
12436;DHT22;6282;51.440;6.938;2023-05-07T11:53:55;21.70;99.90
12436;DHT22;6282;51.440;6.938;2023-05-07T11:56:22;21.70;99.90
12436;DHT22;6282;51.440;6.938;2023-05-07T11:58:49;21.80;99.90
12436;DHT22;6282;51.440;6.938;2023-05-07T12:01:17;21.80;99.90
12436;DHT22;6282;51.440;6.938;2023-05-07T12:03:45;21.70;99.90
12436;DHT22;6282;51.440;6.938;2023-05-07T12:06:14;21.40;99.90
12436;DHT22;6282;51.440;6.938;2023-05-07T12:08:43;21.50;99.90
12436;DHT22;6282;51.440;6.938;2023-05-07T12:11:14;21.60;99.90
12436;DHT22;6282;51.440;6.938;2023-05-07T12:13:41;21.70;99.90
12436;DHT22;6282;51.440;6.938;2023-05-07T12:31:25;21.60;99.90
12436;DHT22;6282;51.440;6.938;2023-05-07T12:33:52;21.30;99.90
12436;DHT22;6282;51.440;6.938;2023-05-07T12:36:19;21.20;68.80
12436;DHT22;6282;51.440;6.938;2023-05-07T12:38:49;21.00;1.00
12436;DHT22;6282;51.440;6.938;2023-05-07T12:41:16;20.90;1.00
12436;DHT22;6282;51.440;6.938;2023-05-07T12:43:44;20.80;1.00
12436;DHT22;6282;51.440;6.938;2023-05-07T12:46:11;20.70;1.00
12436;DHT22;6282;51.440;6.938;2023-05-07T12:48:43;20.60;1.00
12436;DHT22;6282;51.440;6.938;2023-05-07T12:51:11;20.50;1.00
12436;DHT22;6282;51.440;6.938;2023-05-07T12:53:40;20.50;1.00
12436;DHT22;6282;51.440;6.938;2023-05-07T12:56:07;20.40;1.00
12436;DHT22;6282;51.440;6.938;2023-05-07T12:58:35;20.40;1.00
12436;DHT22;6282;51.440;6.938;2023-05-07T13:01:05;20.40;1.00
12436;DHT22;6282;51.440;6.938;2023-05-07T13:03:34;20.30;1.00
12436;DHT22;6282;51.440;6.938;2023-05-07T13:06:04;20.30;1.00
12436;DHT22;6282;51.440;6.938;2023-05-07T13:08:33;20.20;1.00
12436;DHT22;6282;51.440;6.938;2023-05-07T13:11:02;20.20;1.00
12436;DHT22;6282;51.440;6.938;2023-05-07T13:13:29;20.20;1.00
12436;DHT22;6282;51.440;6.938;2023-05-07T13:15:57;20.10;1.00
12436;DHT22;6282;51.440;6.938;2023-05-07T13:18:24;19.90;1.00
12436;DHT22;6282;51.440;6.938;2023-05-07T13:20:52;19.70;1.00
12436;DHT22;6282;51.440;6.938;2023-05-07T13:23:20;19.60;1.00
12436;DHT22;6282;51.440;6.938;2023-05-07T13:25:48;19.40;99.90
12436;DHT22;6282;51.440;6.938;2023-05-07T13:28:15;19.00;99.90
12436;DHT22;6282;51.440;6.938;2023-05-07T13:30:42;18.70;99.90
12436;DHT22;6282;51.440;6.938;2023-05-07T13:33:09;18.60;99.90
12436;DHT22;6282;51.440;6.938;2023-05-07T13:35:36;18.50;99.90
12436;DHT22;6282;51.440;6.938;2023-05-07T13:38:03;18.40;99.90
12436;DHT22;6282;51.440;6.938;2023-05-07T13:40:31;18.20;99.90
12436;DHT22;6282;51.440;6.938;2023-05-07T13:42:58;18.20;99.90
12436;DHT22;6282;51.440;6.938;2023-05-07T13:45:27;18.20;99.90
12436;DHT22;6282;51.440;6.938;2023-05-07T13:47:56;18.10;99.90
12436;DHT22;6282;51.440;6.938;2023-05-07T13:50:23;18.00;99.90
12436;DHT22;6282;51.440;6.938;2023-05-07T13:52:52;18.00;99.90
12436;DHT22;6282;51.440;6.938;2023-05-07T13:55:20;18.10;99.90
12436;DHT22;6282;51.440;6.938;2023-05-07T13:57:54;17.90;99.90
12436;DHT22;6282;51.440;6.938;2023-05-07T14:00:22;17.90;99.90
12436;DHT22;6282;51.440;6.938;2023-05-07T14:02:49;17.70;99.90
12436;DHT22;6282;51.440;6.938;2023-05-07T14:05:16;17.70;99.90
12436;DHT22;6282;51.440;6.938;2023-05-07T14:07:44;17.60;99.90
12436;DHT22;6282;51.440;6.938;2023-05-07T14:10:11;17.70;99.90
12436;DHT22;6282;51.440;6.938;2023-05-07T14:12:38;17.50;99.90
12436;DHT22;6282;51.440;6.938;2023-05-07T14:15:08;17.50;99.90
12436;DHT22;6282;51.440;6.938;2023-05-07T14:17:35;17.50;99.90
12436;DHT22;6282;51.440;6.938;2023-05-07T14:20:02;17.50;99.90
12436;DHT22;6282;51.440;6.938;2023-05-07T14:22:29;17.60;99.90
12436;DHT22;6282;51.440;6.938;2023-05-07T14:24:56;17.60;99.90
12436;DHT22;6282;51.440;6.938;2023-05-07T14:27:22;17.60;99.90
12436;DHT22;6282;51.440;6.938;2023-05-07T14:29:49;17.80;99.90
12436;DHT22;6282;51.440;6.938;2023-05-07T14:32:18;17.80;99.90
12436;DHT22;6282;51.440;6.938;2023-05-07T14:34:45;17.60;99.90
12436;DHT22;6282;51.440;6.938;2023-05-07T14:37:12;17.50;99.90
12436;DHT22;6282;51.440;6.938;2023-05-07T14:39:39;17.60;99.90
12436;DHT22;6282;51.440;6.938;2023-05-07T14:42:06;17.50;99.90
12436;DHT22;6282;51.440;6.938;2023-05-07T14:44:35;17.50;99.90
12436;DHT22;6282;51.440;6.938;2023-05-07T14:47:01;17.50;99.90
12436;DHT22;6282;51.440;6.938;2023-05-07T14:49:30;17.50;99.90
12436;DHT22;6282;51.440;6.938;2023-05-07T14:51:57;17.60;99.90
12436;DHT22;6282;51.440;6.938;2023-05-07T14:54:24;17.60;99.90
12436;DHT22;6282;51.440;6.938;2023-05-07T14:56:51;17.60;99.90
12436;DHT22;6282;51.440;6.938;2023-05-07T14:59:19;17.40;99.90
12436;DHT22;6282;51.440;6.938;2023-05-07T15:01:46;17.60;99.90
12436;DHT22;6282;51.440;6.938;2023-05-07T15:04:13;17.70;99.90
12436;DHT22;6282;51.440;6.938;2023-05-07T15:06:41;18.00;99.90
12436;DHT22;6282;51.440;6.938;2023-05-07T15:09:08;18.10;99.90
12436;DHT22;6282;51.440;6.938;2023-05-07T15:11:35;18.10;99.90
12436;DHT22;6282;51.440;6.938;2023-05-07T15:14:02;18.20;99.90
12436;DHT22;6282;51.440;6.938;2023-05-07T15:16:29;18.10;99.90
12436;DHT22;6282;51.440;6.938;2023-05-07T15:18:56;18.20;99.90
12436;DHT22;6282;51.440;6.938;2023-05-07T15:21:22;18.30;99.90
12436;DHT22;6282;51.440;6.938;2023-05-07T15:23:50;18.30;99.90
12436;DHT22;6282;51.440;6.938;2023-05-07T15:26:17;18.20;99.90
12436;DHT22;6282;51.440;6.938;2023-05-07T15:28:44;18.10;99.90
12436;DHT22;6282;51.440;6.938;2023-05-07T15:31:11;18.30;99.90
12436;DHT22;6282;51.440;6.938;2023-05-07T15:33:38;18.30;99.90
12436;DHT22;6282;51.440;6.938;2023-05-07T15:36:06;18.10;99.90
12436;DHT22;6282;51.440;6.938;2023-05-07T15:38:33;18.00;99.90
12436;DHT22;6282;51.440;6.938;2023-05-07T15:41:01;18.10;99.90
12436;DHT22;6282;51.440;6.938;2023-05-07T15:43:29;18.20;99.90
12436;DHT22;6282;51.440;6.938;2023-05-07T15:45:56;18.10;99.90
12436;DHT22;6282;51.440;6.938;2023-05-07T15:48:22;18.20;99.90
12436;DHT22;6282;51.440;6.938;2023-05-07T15:50:49;18.20;99.90
12436;DHT22;6282;51.440;6.938;2023-05-07T15:53:16;18.20;99.90
12436;DHT22;6282;51.440;6.938;2023-05-07T15:55:43;18.30;99.90
12436;DHT22;6282;51.440;6.938;2023-05-07T15:58:11;18.20;99.90
12436;DHT22;6282;51.440;6.938;2023-05-07T16:00:38;18.30;99.90
12436;DHT22;6282;51.440;6.938;2023-05-07T16:03:06;18.30;99.90
12436;DHT22;6282;51.440;6.938;2023-05-07T16:05:33;18.30;99.90
12436;DHT22;6282;51.440;6.938;2023-05-07T16:08:00;18.20;99.90
12436;DHT22;6282;51.440;6.938;2023-05-07T16:10:28;18.20;99.90
12436;DHT22;6282;51.440;6.938;2023-05-07T16:12:55;18.30;99.90
12436;DHT22;6282;51.440;6.938;2023-05-07T16:15:24;18.20;99.90
12436;DHT22;6282;51.440;6.938;2023-05-07T16:17:50;18.20;99.90
12436;DHT22;6282;51.440;6.938;2023-05-07T16:20:22;18.00;99.90
12436;DHT22;6282;51.440;6.938;2023-05-07T16:22:51;18.20;99.90
12436;DHT22;6282;51.440;6.938;2023-05-07T16:25:18;18.10;99.90
12436;DHT22;6282;51.440;6.938;2023-05-07T16:27:44;18.20;99.90
12436;DHT22;6282;51.440;6.938;2023-05-07T16:30:11;18.30;99.90
12436;DHT22;6282;51.440;6.938;2023-05-07T16:32:40;18.20;99.90
12436;DHT22;6282;51.440;6.938;2023-05-07T16:35:07;18.10;99.90
12436;DHT22;6282;51.440;6.938;2023-05-07T16:37:34;18.20;99.90
12436;DHT22;6282;51.440;6.938;2023-05-07T16:40:01;18.10;99.90
12436;DHT22;6282;51.440;6.938;2023-05-07T16:42:31;18.00;99.90
12436;DHT22;6282;51.440;6.938;2023-05-07T16:44:59;18.00;99.90
12436;DHT22;6282;51.440;6.938;2023-05-07T16:47:26;17.90;99.90
12436;DHT22;6282;51.440;6.938;2023-05-07T16:49:55;17.90;99.90
12436;DHT22;6282;51.440;6.938;2023-05-07T16:52:22;17.90;99.90
12436;DHT22;6282;51.440;6.938;2023-05-07T16:54:49;17.70;99.90
12436;DHT22;6282;51.440;6.938;2023-05-07T16:57:16;17.70;99.90
12436;DHT22;6282;51.440;6.938;2023-05-07T16:59:43;17.80;99.90
12436;DHT22;6282;51.440;6.938;2023-05-07T17:02:09;17.70;99.90
12436;DHT22;6282;51.440;6.938;2023-05-07T17:04:37;17.70;99.90
12436;DHT22;6282;51.440;6.938;2023-05-07T17:07:05;17.80;99.90
12436;DHT22;6282;51.440;6.938;2023-05-07T17:09:33;17.80;99.90
12436;DHT22;6282;51.440;6.938;2023-05-07T17:12:00;17.80;99.90
12436;DHT22;6282;51.440;6.938;2023-05-07T17:14:27;17.80;99.90
12436;DHT22;6282;51.440;6.938;2023-05-07T17:16:54;17.60;99.90